createdAt,value
2018-08-06T00:00:31.523Z,101755.57
2018-08-06T00:03:01.548Z,101757.38
2018-08-06T00:05:31.421Z,101751.85
2018-08-06T00:08:01.078Z,101751.86
2018-08-06T00:10:31.221Z,101747.64
2018-08-06T00:13:01.252Z,101749.47
2018-08-06T00:15:31.047Z,101742.12
2018-08-06T00:18:01.438Z,101742.12
2018-08-06T00:20:31.412Z,101743.01
2018-08-06T00:23:01.423Z,101735.11
2018-08-06T00:25:31.320Z,101732.95
2018-08-06T00:28:01.386Z,101729.31
2018-08-06T00:30:31.049Z,101726.73
2018-08-06T00:33:01.100Z,101722.86
2018-08-06T00:35:30.992Z,101720.84
2018-08-06T00:38:01.246Z,101718.23
2018-08-06T00:40:31.256Z,101717.28
2018-08-06T00:43:01.333Z,101714.84
2018-08-06T00:45:31.347Z,101716.42
2018-08-06T00:48:01.177Z,101705.34
2018-08-06T00:50:31.133Z,101708.05
2018-08-06T00:53:00.668Z,101706.92
2018-08-06T00:55:30.496Z,101702.72
2018-08-06T00:58:01.176Z,101697.66
2018-08-06T01:00:31.281Z,101692.31
2018-08-06T01:03:01.100Z,101697.53
2018-08-06T01:05:30.617Z,101686.97
2018-08-06T01:08:00.529Z,101689.11
2018-08-06T01:10:30.040Z,101684.02
2018-08-06T01:12:59.654Z,101680.19
2018-08-06T01:15:29.437Z,101680.28
2018-08-06T01:17:59.410Z,101674.73
2018-08-06T01:20:29.187Z,101676.34
2018-08-06T01:22:58.852Z,101672.94
2018-08-06T01:25:28.698Z,101673.41
2018-08-06T01:27:58.530Z,101675.75
2018-08-06T01:30:28.167Z,101672.45
2018-08-06T01:32:58.019Z,101667.81
2018-08-06T01:35:27.826Z,101669.07
2018-08-06T01:37:57.884Z,101659.77
2018-08-06T01:40:27.784Z,101662.94
2018-08-06T01:42:57.908Z,101667.50
2018-08-06T01:45:27.967Z,101659.55
2018-08-06T01:47:57.936Z,101664.08
2018-08-06T01:50:27.879Z,101659.18
2018-08-06T01:52:57.848Z,101660.41
2018-08-06T01:55:27.729Z,101657.09
2018-08-06T01:57:57.641Z,101654.52
2018-08-06T02:00:27.593Z,101652.91
2018-08-06T02:02:57.536Z,101651.16
2018-08-06T02:05:27.207Z,101650.11
2018-08-06T02:07:57.112Z,101645.85
2018-08-06T02:10:27.095Z,101646.59
2018-08-06T02:12:56.587Z,101645.41
2018-08-06T02:15:26.090Z,101642.88
2018-08-06T02:17:56.092Z,101642.73
2018-08-06T02:20:25.942Z,101634.94
2018-08-06T02:22:55.741Z,101631.97
2018-08-06T02:25:25.588Z,101629.94
2018-08-06T02:27:55.468Z,101631.81
2018-08-06T02:30:25.059Z,101632.03
2018-08-06T02:32:55.685Z,101622.75
2018-08-06T02:35:25.650Z,101620.80
2018-08-06T02:37:55.563Z,101619.71
2018-08-06T02:40:25.596Z,101617.33
2018-08-06T02:42:55.524Z,101613.47
2018-08-06T02:45:25.684Z,101610.38
2018-08-06T02:47:55.596Z,101603.14
2018-08-06T02:50:25.499Z,101595.63
2018-08-06T02:52:55.484Z,101601.25
2018-08-06T02:55:25.513Z,101603.80
2018-08-06T02:57:55.432Z,101606.05
2018-08-06T03:00:25.366Z,101596.30
2018-08-06T03:02:55.300Z,101599.73
2018-08-06T03:05:25.267Z,101602.92
2018-08-06T03:07:55.493Z,101601.62
2018-08-06T03:10:25.517Z,101602.09
2018-08-06T03:12:55.560Z,101602.53
2018-08-06T03:15:25.394Z,101597.65
2018-08-06T03:17:54.967Z,101600.52
2018-08-06T03:20:24.922Z,101589.53
2018-08-06T03:22:54.415Z,101595.33
2018-08-06T03:25:24.331Z,101596.14
2018-08-06T03:27:53.841Z,101595.75
2018-08-06T03:30:23.922Z,101599.42
2018-08-06T03:32:53.920Z,101593.37
2018-08-06T03:35:23.799Z,101589.42
2018-08-06T03:37:53.428Z,101589.89
2018-08-06T03:40:23.352Z,101586.36
2018-08-06T03:42:53.458Z,101578.30
2018-08-06T03:45:23.314Z,101580.87
2018-08-06T03:47:53.388Z,101581.03
2018-08-06T03:50:23.289Z,101581.80
2018-08-06T03:52:52.838Z,101580.23
2018-08-06T03:55:22.781Z,101577.74
2018-08-06T03:57:52.571Z,101579.25
2018-08-06T04:00:22.541Z,101577.10
2018-08-06T04:02:52.454Z,101570.35
2018-08-06T04:05:21.872Z,101571.00
2018-08-06T04:07:52.077Z,101572.77
2018-08-06T04:10:22.032Z,101572.44
2018-08-06T04:12:52.218Z,101569.41
2018-08-06T04:15:22.296Z,101571.64
2018-08-06T04:17:52.219Z,101563.66
2018-08-06T04:20:22.077Z,101566.92
2018-08-06T04:22:51.953Z,101569.23
2018-08-06T04:25:22.178Z,101569.09
2018-08-06T04:27:52.236Z,101560.78
2018-08-06T04:30:22.224Z,101562.02
2018-08-06T04:32:52.189Z,101553.34
2018-08-06T04:35:21.684Z,101549.48
2018-08-06T04:37:51.571Z,101554.08
2018-08-06T04:40:21.101Z,101549.02
2018-08-06T04:42:50.976Z,101550.41
2018-08-06T04:45:21.123Z,101556.91
2018-08-06T04:47:51.077Z,101551.30
2018-08-06T04:50:21.025Z,101552.75
2018-08-06T04:52:51.128Z,101550.66
2018-08-06T04:55:20.976Z,101553.08
2018-08-06T04:57:50.749Z,101555.92
2018-08-06T05:00:20.834Z,101553.90
2018-08-06T05:02:50.769Z,101551.78
2018-08-06T05:05:20.715Z,101552.59
2018-08-06T05:07:50.539Z,101552.63
2018-08-06T05:10:20.570Z,101557.96
2018-08-06T05:12:50.124Z,101552.26
2018-08-06T05:17:39.662Z,101555.55
2018-08-06T05:20:09.795Z,101551.50
2018-08-06T05:22:39.801Z,101560.20
2018-08-06T05:25:09.718Z,101556.58
2018-08-06T05:27:39.486Z,101557.59
2018-08-06T05:30:12.232Z,101558.95
2018-08-06T05:32:42.303Z,101550.45
2018-08-06T05:35:12.439Z,101551.68
2018-08-06T05:37:42.464Z,101551.41
2018-08-06T05:40:12.552Z,101553.53
2018-08-06T05:42:42.492Z,101549.31
2018-08-06T05:45:12.555Z,101547.35
2018-08-06T05:47:42.440Z,101551.35
2018-08-06T05:50:13.902Z,101551.85
2018-08-06T05:52:43.908Z,101544.31
2018-08-06T05:55:13.527Z,101550.14
2018-08-06T05:57:43.309Z,101550.92
2018-08-06T06:00:17.720Z,101552.81
2018-08-06T06:02:48.068Z,101558.86
2018-08-06T06:05:18.196Z,101554.42
2018-08-06T06:07:47.763Z,101553.96
2018-08-06T06:10:17.891Z,101557.83
2018-08-06T06:12:47.695Z,101564.96
2018-08-06T06:15:18.692Z,101562.66
2018-08-06T06:17:48.324Z,101558.08
2018-08-06T06:20:18.320Z,101562.30
2018-08-06T06:22:48.224Z,101553.73
2018-08-06T06:25:18.355Z,101556.03
2018-08-06T06:27:48.177Z,101546.27
2018-08-06T06:30:18.455Z,101545.09
2018-08-06T06:32:48.585Z,101537.91
2018-08-06T06:35:18.656Z,101540.04
2018-08-06T06:37:48.697Z,101541.72
2018-08-06T06:40:18.526Z,101541.00
2018-08-06T06:42:48.649Z,101539.13
2018-08-06T06:45:18.441Z,101537.89
2018-08-06T06:47:48.819Z,101535.81
2018-08-06T06:50:18.305Z,101535.73
2018-08-06T06:52:48.174Z,101539.05
2018-08-06T06:55:18.344Z,101535.16
2018-08-06T06:57:48.230Z,101537.47
2018-08-06T07:00:18.261Z,101537.96
2018-08-06T07:02:48.362Z,101536.74
2018-08-06T07:05:18.417Z,101531.86
2018-08-06T07:07:48.447Z,101540.11
2018-08-06T07:10:18.070Z,101532.27
2018-08-06T07:12:48.268Z,101535.69
2018-08-06T07:15:18.097Z,101529.93
2018-08-06T07:17:49.333Z,101523.53
2018-08-06T07:20:20.728Z,101520.44
2018-08-06T07:22:51.200Z,101521.86
2018-08-06T07:25:21.167Z,101516.66
2018-08-06T07:27:51.048Z,101515.61
2018-08-06T07:30:21.043Z,101505.09
2018-08-06T07:32:50.970Z,101502.28
2018-08-06T07:35:20.669Z,101500.54
2018-08-06T07:37:50.912Z,101497.03
2018-08-06T07:40:20.626Z,101488.36
2018-08-06T07:42:50.377Z,101488.84
2018-08-06T07:45:21.206Z,101483.20
2018-08-06T07:47:51.899Z,101486.61
2018-08-06T07:50:21.828Z,101486.61
2018-08-06T07:52:52.417Z,101478.64
2018-08-06T07:55:22.336Z,101469.98
2018-08-06T07:57:52.295Z,101472.12
2018-08-06T08:00:22.167Z,101466.66
2018-08-06T08:02:52.355Z,101464.30
2018-08-06T08:05:22.203Z,101458.58
2018-08-06T08:07:52.144Z,101455.83
2018-08-06T08:10:23.093Z,101449.23
2018-08-06T08:12:53.370Z,101457.94
2018-08-06T08:15:26.719Z,101451.87
2018-08-06T08:17:58.266Z,101456.61
2018-08-06T08:20:28.357Z,101447.97
2018-08-06T08:22:58.736Z,101446.07
2018-08-06T08:25:28.794Z,101440.72
2018-08-06T08:27:58.692Z,101435.53
2018-08-06T08:30:28.630Z,101429.98
2018-08-06T08:32:58.521Z,101417.69
2018-08-06T08:35:33.312Z,101422.20
2018-08-06T08:38:03.238Z,101425.87
2018-08-06T08:40:33.256Z,101422.94
2018-08-06T08:43:03.456Z,101425.74
2018-08-06T08:45:33.442Z,101419.44
2018-08-06T08:48:03.278Z,101417.03
2018-08-06T08:50:33.544Z,101417.80
2018-08-06T08:53:03.412Z,101412.64
2018-08-06T08:55:32.886Z,101403.50
2018-08-06T08:58:02.929Z,101409.41
2018-08-06T09:00:32.851Z,101408.83
2018-08-06T09:03:02.733Z,101405.30
2018-08-06T09:05:32.668Z,101402.44
2018-08-06T09:08:02.684Z,101404.42
2018-08-06T09:10:32.836Z,101400.48
2018-08-06T09:13:02.902Z,101393.88
2018-08-06T09:15:32.909Z,101388.02
2018-08-06T09:18:03.172Z,101387.42
2018-08-06T09:20:33.080Z,101390.98
2018-08-06T09:23:03.000Z,101387.45
2018-08-06T09:25:32.943Z,101384.54
2018-08-06T09:28:03.050Z,101381.18
2018-08-06T09:30:32.531Z,101382.78
2018-08-06T09:33:02.791Z,101377.91
2018-08-06T09:35:32.887Z,101375.56
2018-08-06T09:38:02.784Z,101374.38
2018-08-06T09:40:32.843Z,101377.70
2018-08-06T09:43:02.905Z,101363.98
2018-08-06T09:45:33.183Z,101367.53
2018-08-06T09:48:02.774Z,101347.70
2018-08-06T09:50:33.456Z,101357.89
2018-08-06T09:53:03.584Z,101354.95
2018-08-06T09:55:33.541Z,101352.60
2018-08-06T09:58:03.917Z,101343.00
2018-08-06T10:00:39.069Z,101340.66
2018-08-06T10:03:08.976Z,101332.20
2018-08-06T10:05:38.971Z,101328.08
2018-08-06T10:08:08.850Z,101334.53
2018-08-06T10:10:38.747Z,101324.16
2018-08-06T10:13:19.431Z,101323.77
2018-08-06T10:15:49.321Z,101319.05
2018-08-06T10:18:19.365Z,101314.36
2018-08-06T10:20:49.288Z,101311.41
2018-08-06T10:23:19.297Z,101315.30
2018-08-06T10:25:49.237Z,101312.91
2018-08-06T10:28:18.865Z,101301.17
2018-08-06T10:30:48.964Z,101296.48
2018-08-06T10:33:18.449Z,101298.83
2018-08-06T10:35:48.471Z,101293.27
2018-08-06T10:38:18.488Z,101291.91
2018-08-06T10:40:48.533Z,101282.89
2018-08-06T10:43:18.419Z,101294.80
2018-08-06T10:45:48.416Z,101284.78
2018-08-06T10:48:18.500Z,101273.38
2018-08-06T10:50:48.303Z,101270.20
2018-08-06T10:53:18.287Z,101273.39
2018-08-06T10:55:48.323Z,101266.96
2018-08-06T10:58:18.366Z,101262.78
2018-08-06T11:00:48.584Z,101251.94
2018-08-06T11:03:18.897Z,101256.63
2018-08-06T11:05:48.808Z,101255.09
2018-08-06T11:08:18.674Z,101245.06
2018-08-06T11:10:48.841Z,101240.70
2018-08-06T11:13:18.334Z,101240.40
2018-08-06T11:15:48.400Z,101241.50
2018-08-06T11:18:18.473Z,101234.77
2018-08-06T11:20:48.463Z,101229.95
2018-08-06T11:23:18.412Z,101225.88
2018-08-06T11:25:48.516Z,101229.42
2018-08-06T11:28:18.657Z,101229.63
2018-08-06T11:30:48.665Z,101221.26
2018-08-06T11:33:18.286Z,101222.78
2018-08-06T11:35:47.796Z,101216.27
2018-08-06T11:38:17.864Z,101212.92
2018-08-06T11:40:47.804Z,101215.97
2018-08-06T11:43:17.826Z,101214.33
2018-08-06T11:45:48.324Z,101212.51
2018-08-06T11:48:18.382Z,101205.83
2018-08-06T11:50:48.028Z,101195.23
2018-08-06T11:53:18.032Z,101195.00
2018-08-06T11:55:48.189Z,101197.38
2018-08-06T11:58:18.195Z,101197.06
2018-08-06T12:00:48.096Z,101189.77
2018-08-06T12:03:18.274Z,101187.53
2018-08-06T12:05:48.243Z,101187.71
2018-08-06T12:08:18.351Z,101178.50
2018-08-06T12:10:48.528Z,101182.29
2018-08-06T12:13:18.407Z,101182.84
2018-08-06T12:15:48.352Z,101185.87
2018-08-06T12:18:18.267Z,101187.18
2018-08-06T12:20:48.088Z,101183.02
2018-08-06T12:23:18.112Z,101185.91
2018-08-06T12:25:48.043Z,101178.62
2018-08-06T12:28:17.799Z,101172.37
2018-08-06T12:30:47.953Z,101179.30
2018-08-06T12:33:17.878Z,101177.88
2018-08-06T12:35:47.359Z,101181.70
2018-08-06T12:38:17.244Z,101178.25
2018-08-06T12:40:47.184Z,101175.13
2018-08-06T12:43:17.151Z,101174.75
2018-08-06T12:45:47.255Z,101174.66
2018-08-06T12:48:16.848Z,101176.69
2018-08-06T12:50:46.789Z,101161.12
2018-08-06T12:53:16.755Z,101168.92
2018-08-06T12:55:46.699Z,101166.77
2018-08-06T12:58:16.937Z,101164.11
2018-08-06T13:00:46.462Z,101154.17
2018-08-06T13:03:16.381Z,101153.28
2018-08-06T13:05:46.448Z,101152.77
2018-08-06T13:08:16.606Z,101152.17
2018-08-06T13:10:46.618Z,101141.55
2018-08-06T13:13:16.536Z,101136.27
2018-08-06T13:15:46.075Z,101136.80
2018-08-06T13:18:16.260Z,101132.98
2018-08-06T13:20:46.372Z,101128.56
2018-08-06T13:23:15.882Z,101121.39
2018-08-06T13:25:45.836Z,101117.43
2018-08-06T13:28:15.665Z,101117.30
2018-08-06T13:30:46.024Z,101109.45
2018-08-06T13:33:16.025Z,101113.76
2018-08-06T13:35:46.004Z,101109.53
2018-08-06T13:38:16.076Z,101106.42
2018-08-06T13:40:46.252Z,101106.72
2018-08-06T13:43:16.384Z,101104.52
2018-08-06T13:45:46.356Z,101099.12
2018-08-06T13:48:16.070Z,101095.25
2018-08-06T13:50:45.668Z,101085.89
2018-08-06T13:53:15.252Z,101086.48
2018-08-06T13:55:45.133Z,101078.34
2018-08-06T13:58:15.661Z,101078.83
2018-08-06T14:00:45.645Z,101070.89
2018-08-06T14:03:16.208Z,101079.02
2018-08-06T14:05:46.376Z,101072.95
2018-08-06T14:08:17.455Z,101070.86
2018-08-06T14:10:47.352Z,101067.42
2018-08-06T14:13:17.590Z,101066.14
2018-08-06T14:15:47.671Z,101058.27
2018-08-06T14:18:17.763Z,101059.32
2018-08-06T14:20:47.813Z,101053.77
2018-08-06T14:23:18.287Z,101057.90
2018-08-06T14:25:48.413Z,101052.34
2018-08-06T14:28:18.488Z,101040.94
2018-08-06T14:30:48.386Z,101039.70
2018-08-06T14:33:18.452Z,101035.52
2018-08-06T14:35:48.613Z,101036.14
2018-08-06T14:38:18.602Z,101031.41
2018-08-06T14:40:48.591Z,101035.02
2018-08-06T14:43:18.053Z,101026.00
2018-08-06T14:45:48.011Z,101025.72
2018-08-06T14:48:18.408Z,101023.58
2018-08-06T14:50:48.367Z,101018.58
2018-08-06T14:53:17.960Z,101010.72
2018-08-06T14:55:47.833Z,101009.15
2018-08-06T14:58:17.789Z,101011.44
2018-08-06T15:00:49.180Z,101006.36
2018-08-06T15:03:19.161Z,101005.61
2018-08-06T15:05:49.341Z,101003.42
2018-08-06T15:08:19.776Z,100999.17
2018-08-06T15:10:49.734Z,101004.08
2018-08-06T15:13:19.833Z,101007.20
2018-08-06T15:15:49.487Z,100998.53
2018-08-06T15:18:19.807Z,100989.94
2018-08-06T15:20:50.010Z,100988.55
2018-08-06T15:23:19.893Z,100988.29
2018-08-06T15:25:49.845Z,100989.44
2018-08-06T15:28:19.650Z,100987.31
2018-08-06T15:30:49.796Z,100987.97
2018-08-06T15:33:20.041Z,100983.79
2018-08-06T15:35:50.236Z,100977.30
2018-08-06T15:38:20.098Z,100972.41
2018-08-06T15:40:49.880Z,100976.23
2018-08-06T15:43:19.848Z,100970.73
2018-08-06T15:45:49.747Z,100971.69
2018-08-06T15:48:19.928Z,100973.02
2018-08-06T15:50:50.034Z,100966.09
2018-08-06T15:53:20.057Z,100969.73
2018-08-06T15:55:49.919Z,100962.14
2018-08-06T15:58:20.136Z,100957.25
2018-08-06T16:00:50.125Z,100960.45
2018-08-06T16:03:20.128Z,100955.00
2018-08-06T16:05:50.010Z,100957.17
2018-08-06T16:08:19.609Z,100951.38
2018-08-06T16:10:49.604Z,100951.02
2018-08-06T16:13:19.409Z,100943.55
2018-08-06T16:15:49.404Z,100945.67
2018-08-06T16:18:19.401Z,100945.34
2018-08-06T16:20:49.348Z,100938.02
2018-08-06T16:23:19.326Z,100931.47
2018-08-06T16:25:49.328Z,100927.39
2018-08-06T16:28:19.551Z,100929.84
2018-08-06T16:30:49.972Z,100935.86
2018-08-06T16:33:19.908Z,100929.44
2018-08-06T16:35:49.591Z,100928.29
2018-08-06T16:38:19.742Z,100926.98
2018-08-06T16:40:49.752Z,100926.16
2018-08-06T16:43:20.126Z,100921.60
2018-08-06T16:45:50.263Z,100919.05
2018-08-06T16:48:20.300Z,100913.02
2018-08-06T16:50:50.441Z,100919.62
2018-08-06T16:53:20.066Z,100914.17
2018-08-06T16:55:50.061Z,100915.48
2018-08-06T16:58:19.825Z,100907.68
2018-08-06T17:00:49.870Z,100908.66
2018-08-06T17:03:20.053Z,100906.83
2018-08-06T17:05:49.967Z,100904.33
2018-08-06T17:08:20.203Z,100904.91
2018-08-06T17:10:50.246Z,100898.73
2018-08-06T17:13:20.628Z,100899.94
2018-08-06T17:15:50.700Z,100906.58
2018-08-06T17:18:20.854Z,100902.78
2018-08-06T17:20:50.703Z,100903.64
2018-08-06T17:23:20.827Z,100895.28
2018-08-06T17:25:50.904Z,100901.41
2018-08-06T17:28:20.875Z,100902.13
2018-08-06T17:30:50.893Z,100902.72
2018-08-06T17:33:20.921Z,100899.16
2018-08-06T17:35:50.980Z,100900.93
2018-08-06T17:38:20.994Z,100900.08
2018-08-06T17:40:51.261Z,100889.22
2018-08-06T17:43:21.581Z,100901.88
2018-08-06T17:45:51.375Z,100899.46
2018-08-06T17:48:21.255Z,100899.77
2018-08-06T17:50:50.860Z,100894.75
2018-08-06T17:53:20.501Z,100890.52
2018-08-06T17:55:50.385Z,100889.27
2018-08-06T17:58:20.403Z,100885.89
2018-08-06T18:00:49.942Z,100895.33
2018-08-06T18:03:19.920Z,100891.23
2018-08-06T18:05:49.955Z,100897.20
2018-08-06T18:08:19.628Z,100889.14
2018-08-06T18:10:49.678Z,100884.84
2018-08-06T18:13:19.399Z,100893.00
2018-08-06T18:15:49.336Z,100884.84
2018-08-06T18:18:19.233Z,100888.52
2018-08-06T18:20:49.488Z,100883.15
2018-08-06T18:23:19.503Z,100891.19
2018-08-06T18:25:49.327Z,100888.14
2018-08-06T18:28:19.278Z,100886.03
2018-08-06T18:30:48.764Z,100886.81
2018-08-06T18:33:18.854Z,100895.08
2018-08-06T18:35:48.744Z,100890.38
2018-08-06T18:38:18.619Z,100892.69
2018-08-06T18:40:48.455Z,100889.62
2018-08-06T18:43:18.471Z,100896.69
2018-08-06T18:45:48.467Z,100895.36
2018-08-06T18:48:18.468Z,100904.30
2018-08-06T18:50:48.508Z,100903.70
2018-08-06T18:53:18.379Z,100898.37
2018-08-06T18:55:48.217Z,100899.93
2018-08-06T18:58:18.286Z,100897.56
2018-08-06T19:00:47.869Z,100898.30
2018-08-06T19:03:17.928Z,100893.52
2018-08-06T19:05:48.042Z,100897.31
2018-08-06T19:08:17.937Z,100900.92
2018-08-06T19:10:47.450Z,100896.16
2018-08-06T19:13:22.512Z,100901.48
2018-08-06T19:15:52.313Z,100906.67
2018-08-06T19:18:27.442Z,100899.97
2018-08-06T19:20:57.256Z,100903.16
2018-08-06T19:23:27.345Z,100909.98
2018-08-06T19:25:57.067Z,100909.51
2018-08-06T19:28:26.592Z,100909.83
2018-08-06T19:31:01.501Z,100915.55
2018-08-06T19:33:31.386Z,100920.07
2018-08-06T19:36:01.301Z,100913.28
2018-08-06T19:38:31.437Z,100921.55
2018-08-06T19:41:01.242Z,100920.62
2018-08-06T19:43:36.263Z,100919.05
2018-08-06T19:46:06.880Z,100918.72
2018-08-06T19:48:37.318Z,100919.70
2018-08-06T19:51:07.355Z,100917.16
2018-08-06T19:53:37.444Z,100917.78
2018-08-06T19:56:12.834Z,100921.90
2018-08-06T19:58:42.864Z,100914.06
2018-08-06T20:01:12.909Z,100913.28
2018-08-06T20:03:42.818Z,100916.03
2018-08-06T20:06:12.703Z,100913.86
2018-08-06T20:08:43.281Z,100919.70
2018-08-06T20:11:13.439Z,100917.22
2018-08-06T20:13:43.210Z,100919.95
2018-08-06T20:16:13.229Z,100922.89
2018-08-06T20:18:43.286Z,100921.34
2018-08-06T20:21:13.234Z,100917.23
2018-08-06T20:23:42.747Z,100918.61
2018-08-06T20:26:14.627Z,100925.06
2018-08-06T20:28:46.207Z,100916.85
2018-08-06T20:31:16.215Z,100916.07
2018-08-06T20:33:47.534Z,100920.57
2018-08-06T20:36:20.179Z,100919.61
2018-08-06T20:38:51.622Z,100917.46
2018-08-06T20:41:21.761Z,100922.17
2018-08-06T20:43:51.817Z,100923.54
2018-08-06T20:46:23.159Z,100922.58
2018-08-06T20:48:55.373Z,100924.55
2018-08-06T20:51:25.335Z,100926.89
2018-08-06T20:53:55.164Z,100925.75
2018-08-06T20:56:25.966Z,100924.37
2018-08-06T20:58:55.892Z,100930.81
2018-08-06T21:01:25.845Z,100924.64
2018-08-06T21:03:56.181Z,100927.26
2018-08-06T21:06:26.935Z,100928.40
2018-08-06T21:08:57.006Z,100924.36
2018-08-06T21:11:26.855Z,100926.86
2018-08-06T21:13:56.746Z,100927.01
2018-08-06T21:16:26.659Z,100926.77
2018-08-06T21:18:56.764Z,100925.45
2018-08-06T21:21:29.040Z,100921.77
2018-08-06T21:23:59.031Z,100923.34
2018-08-06T21:26:28.851Z,100918.50
2018-08-06T21:28:58.852Z,100918.33
2018-08-06T21:31:29.130Z,100920.84
2018-08-06T21:33:59.633Z,100916.16
2018-08-06T21:36:29.111Z,100917.94
2018-08-06T21:38:59.553Z,100924.40
2018-08-06T21:41:29.338Z,100920.48
2018-08-06T21:43:58.797Z,100918.53
2018-08-06T21:46:28.899Z,100918.14
2018-08-06T21:48:58.885Z,100921.64
2018-08-06T21:51:29.041Z,100914.23
2018-08-06T21:53:59.017Z,100918.54
2018-08-06T21:56:28.910Z,100916.39
2018-08-06T21:58:59.009Z,100921.86
2018-08-06T22:01:28.925Z,100910.92
2018-08-06T22:03:58.937Z,100915.59
2018-08-06T22:06:28.862Z,100908.55
2018-08-06T22:08:58.708Z,100915.39
2018-08-06T22:11:28.653Z,100905.78
2018-08-06T22:13:58.721Z,100908.93
2018-08-06T22:16:28.470Z,100906.98
2018-08-06T22:18:58.356Z,100906.41
2018-08-06T22:21:28.216Z,100902.52
2018-08-06T22:23:58.107Z,100909.36
2018-08-06T22:26:27.996Z,100902.52
2018-08-06T22:28:57.764Z,100900.96
2018-08-06T22:31:27.659Z,100896.82
2018-08-06T22:33:57.650Z,100896.23
2018-08-06T22:36:28.060Z,100900.34
2018-08-06T22:38:58.166Z,100899.77
2018-08-06T22:41:28.030Z,100901.89
2018-08-06T22:43:58.074Z,100892.72
2018-08-06T22:46:28.275Z,100887.46
2018-08-06T22:48:58.315Z,100884.91
2018-08-06T22:51:27.805Z,100893.31
2018-08-06T22:53:57.732Z,100887.84
2018-08-06T22:56:27.421Z,100887.25
2018-08-06T22:58:57.526Z,100884.74
2018-08-06T23:01:27.665Z,100889.05
2018-08-06T23:03:57.832Z,100881.42
2018-08-06T23:06:27.719Z,100877.48
2018-08-06T23:08:57.623Z,100884.31
2018-08-06T23:11:27.376Z,100881.57
2018-08-06T23:13:57.512Z,100870.05
2018-08-06T23:16:27.461Z,100866.73
2018-08-06T23:18:57.369Z,100872.36
2018-08-06T23:21:27.521Z,100864.95
2018-08-06T23:23:57.405Z,100866.14
2018-08-06T23:26:27.449Z,100861.64
2018-08-06T23:28:57.079Z,100853.08
2018-08-06T23:31:26.988Z,100857.35
2018-08-06T23:33:56.667Z,100852.06
2018-08-06T23:36:26.673Z,100851.25
2018-08-06T23:38:57.040Z,100851.06
2018-08-06T23:41:27.369Z,100849.69
2018-08-06T23:43:56.841Z,100849.07
2018-08-06T23:46:26.871Z,100846.52
2018-08-06T23:48:56.640Z,100846.52
2018-08-06T23:51:26.697Z,100849.63
2018-08-06T23:53:56.746Z,100848.46
2018-08-06T23:56:26.713Z,100847.48
2018-08-06T23:58:56.557Z,100840.03
